Bosporus — V2QY — position and weather

sailwx.info

Track history (hours):
 
Tides and Currents Weather Stations Pressure Air Temp Water Temp Dewpoint Dewpoint Depression Visibility Wind Speed Wind Dir Waves Ship Positions

Bosporus

Last reported at 2015-Mar-04 00:33 UTC. Time now 2015-Mar-06 21:41 UTC.
Position N 40°44' E 013°38'.

Length 100 m; draft 5.3 m.

Type: Cargo ship. MMSI: 304010802.

Date/timePositionNaut miles runAvg speedWind from/ knotsBaromVisibWave heightAir tempDewpointWater temp
2015-Mar-04 00:33N 40°44' E 013°38'1210.9
2015-Mar-03 23:28N 40°38' E 013°52'1010.8
2015-Mar-03 22:32N 40°33' E 014°03'5 0.2
2015-Mar-03 01:30N 40°29' E 014°07'9 9.0
2015-Mar-03 00:31N 40°29' E 013°55'9 9.3
2015-Mar-02 23:32N 40°28' E 013°43'337 8.1
2015-Mar-01 06:06N 42°56' E 006°57'7510.7
2015-Feb-28 23:04N 43°08' E 005°16'711.1
2015-Feb-28 22:29N 43°10' E 005°07'9 9.4
2015-Feb-28 21:33N 43°17' E 004°59'10 9.8
2015-Feb-28 20:33N 43°26' E 004°53'0 0.2
2015-Feb-28 19:27N 43°26' E 004°54'0 0.0
2015-Feb-28 18:34N 43°26' E 004°54'0 0.0
2015-Feb-28 17:16N 43°26' E 004°54'0 0.0
2015-Feb-28 16:33N 43°26' E 004°54'0 0.0
2015-Feb-28 15:33N 43°26' E 004°54'0 0.0
2015-Feb-28 14:28N 43°26' E 004°54'0 0.0
2015-Feb-28 13:03N 43°26' E 004°54'0 0.0
2015-Feb-28 12:31N 43°26' E 004°54'0 0.0
2015-Feb-28 11:34N 43°26' E 004°54'0 0.0
2015-Feb-28 10:33N 43°26' E 004°54'0 0.0
2015-Feb-28 09:28N 43°26' E 004°54'0 0.0
2015-Feb-28 08:34N 43°26' E 004°54'0 0.0
2015-Feb-28 07:34N 43°26' E 004°54'0 0.0
2015-Feb-28 06:27N 43°26' E 004°54'0 0.0
2015-Feb-28 05:33N 43°26' E 004°54'0 0.0
2015-Feb-28 04:34N 43°26' E 004°54'0 0.0
2015-Feb-28 03:33N 43°26' E 004°54'0 0.0
2015-Feb-28 02:34N 43°26' E 004°54'0 0.0
2015-Feb-28 01:34N 43°26' E 004°54'0 0.0
2015-Feb-28 00:28N 43°26' E 004°54'2 1.8
2015-Feb-27 23:30N 43°25' E 004°56'0 0.1
2015-Feb-27 22:33N 43°25' E 004°56'0 0.0
2015-Feb-27 21:33N 43°25' E 004°56'0 0.0
2015-Feb-27 20:24N 43°25' E 004°56'0 0.0
2015-Feb-27 19:33N 43°25' E 004°56'0 0.0
2015-Feb-27 18:33N 43°25' E 004°56'0 0.0
2015-Feb-27 17:33N 43°25' E 004°56'0 0.0
2015-Feb-27 16:30N 43°25' E 004°56'0 0.0
2015-Feb-27 15:33N 43°25' E 004°56'0 0.0
2015-Feb-27 14:33N 43°25' E 004°56'0 0.0
2015-Feb-27 13:33N 43°25' E 004°56'0 0.0
2015-Feb-27 12:33N 43°25' E 004°56'0 0.0
2015-Feb-27 11:33N 43°25' E 004°56'0 0.0
2015-Feb-27 10:33N 43°25' E 004°56'3 2.7
2015-Feb-27 09:33N 43°23' E 004°57'21 9.1
2015-Feb-27 07:13N 43°17' E 004°29'1212.0
2015-Feb-27 06:12N 43°17' E 004°12'86 9.6
2015-Feb-26 21:14N 42°01' E 003°18'911.5
2015-Feb-26 20:28N 41°52' E 003°14'1411.5
2015-Feb-26 19:13N 41°42' E 003°01'1012.2
2015-Feb-26 18:24N 41°36' E 002°51'1111.9
2015-Feb-26 17:29N 41°29' E 002°39'1511.4
2015-Feb-26 16:12N 41°20' E 002°23'2311.3
2015-Feb-26 14:10N 41°10' E 001°56'  
2015-Feb-24 01:28N 41°22' E 002°27'1110.8
2015-Feb-24 00:29N 41°28' E 002°38'1111.2
2015-Feb-23 23:28N 41°35' E 002°50'1110.9
2015-Feb-23 22:28N 41°42' E 003°01'1010.8
2015-Feb-23 21:33N 41°49' E 003°11'1111.0
2015-Feb-23 20:33N 41°59' E 003°17'1110.9
2015-Feb-23 19:33N 42°10' E 003°19'1211.0
2015-Feb-23 18:29N 42°21' E 003°21'1111.2
2015-Feb-23 17:28N 42°33' E 003°18'1111.0
2015-Feb-23 16:27N 42°43' E 003°16'1010.9
2015-Feb-23 15:33N 42°53' E 003°14'9 9.3
2015-Feb-23 14:33N 43°02' E 003°17'9 8.8
2015-Feb-23 13:31N 43°06' E 003°28'1010.2
2015-Feb-23 12:32N 43°09' E 003°41'1310.4
2015-Feb-23 11:20N 43°13' E 003°58'810.5
2015-Feb-23 10:33N 43°14' E 004°09'1310.7
2015-Feb-23 09:19N 43°16' E 004°27'1211.4
2015-Feb-23 08:15N 43°17' E 004°43'1010.1
2015-Feb-23 07:19N 43°20' E 004°56'6 7.6
2015-Feb-23 06:33N 43°26' E 004°53'0 0.0
2015-Feb-23 05:31N 43°26' E 004°53'0 0.0
2015-Feb-23 04:10N 43°26' E 004°53'0 0.0
2015-Feb-23 03:22N 43°26' E 004°53'0 0.0
2015-Feb-23 02:16N 43°26' E 004°53'0 0.0
2015-Feb-23 01:25N 43°26' E 004°53'0 0.0
2015-Feb-23 00:25N 43°26' E 004°53'0 0.0
2015-Feb-22 23:16N 43°26' E 004°53'0 0.0
2015-Feb-22 22:31N 43°26' E 004°53'0 0.0
2015-Feb-22 21:31N 43°26' E 004°53'0 0.0
2015-Feb-22 20:28N 43°26' E 004°53'0 0.0
2015-Feb-22 19:22N 43°26' E 004°53'0 0.0
2015-Feb-22 18:31N 43°26' E 004°53'0 0.0
2015-Feb-22 17:28N 43°26' E 004°53'0 0.0
2015-Feb-22 16:28N 43°26' E 004°53'0 0.0
2015-Feb-22 15:28N 43°26' E 004°53'0 0.0
2015-Feb-22 14:22N 43°26' E 004°53'0 0.0
2015-Feb-22 13:28N 43°26' E 004°53'0 0.0
2015-Feb-22 12:28N 43°26' E 004°53'0 0.0
2015-Feb-22 11:28N 43°26' E 004°53'0 0.0
2015-Feb-22 10:28N 43°26' E 004°53'0 0.0
2015-Feb-22 09:31N 43°26' E 004°53'0 0.0
2015-Feb-22 08:28N 43°26' E 004°53'0 0.0
2015-Feb-22 07:22N 43°26' E 004°53'0 0.0
2015-Feb-22 06:31N 43°26' E 004°53'0 0.0
2015-Feb-22 05:28N 43°26' E 004°53'0 0.0
2015-Feb-22 04:28N 43°26' E 004°53'0 0.0
2015-Feb-22 03:22N 43°26' E 004°53'0 0.0
2015-Feb-22 02:28N 43°26' E 004°53'0 0.0
2015-Feb-22 01:31N 43°26' E 004°53'  
Track history (hours):
 
Tides and Currents Weather Stations Pressure Air Temp Water Temp Dewpoint Dewpoint Depression Visibility Wind Speed Wind Dir Waves Ship Positions

Bosporus

Last reported at 2015-Mar-04 00:33 UTC. Time now 2015-Mar-06 21:41 UTC.
Position N 40°44' E 013°38'.

Length 100 m; draft 5.3 m.

Type: Cargo ship. MMSI: 304010802.

Date/timePositionNaut miles runAvg speedWind from/ knotsBaromVisibWave heightAir tempDewpointWater temp
2015-Mar-04 00:33N 40°44' E 013°38'1210.9
2015-Mar-03 23:28N 40°38' E 013°52'1010.8
2015-Mar-03 22:32N 40°33' E 014°03'5 0.2
2015-Mar-03 01:30N 40°29' E 014°07'9 9.0
2015-Mar-03 00:31N 40°29' E 013°55'9 9.3
2015-Mar-02 23:32N 40°28' E 013°43'337 8.1
2015-Mar-01 06:06N 42°56' E 006°57'7510.7
2015-Feb-28 23:04N 43°08' E 005°16'711.1
2015-Feb-28 22:29N 43°10' E 005°07'9 9.4
2015-Feb-28 21:33N 43°17' E 004°59'10 9.8
2015-Feb-28 20:33N 43°26' E 004°53'0 0.2
2015-Feb-28 19:27N 43°26' E 004°54'0 0.0
2015-Feb-28 18:34N 43°26' E 004°54'0 0.0
2015-Feb-28 17:16N 43°26' E 004°54'0 0.0
2015-Feb-28 16:33N 43°26' E 004°54'0 0.0
2015-Feb-28 15:33N 43°26' E 004°54'0 0.0
2015-Feb-28 14:28N 43°26' E 004°54'0 0.0
2015-Feb-28 13:03N 43°26' E 004°54'0 0.0
2015-Feb-28 12:31N 43°26' E 004°54'0 0.0
2015-Feb-28 11:34N 43°26' E 004°54'0 0.0
2015-Feb-28 10:33N 43°26' E 004°54'0 0.0
2015-Feb-28 09:28N 43°26' E 004°54'0 0.0
2015-Feb-28 08:34N 43°26' E 004°54'0 0.0
2015-Feb-28 07:34N 43°26' E 004°54'0 0.0
2015-Feb-28 06:27N 43°26' E 004°54'0 0.0
2015-Feb-28 05:33N 43°26' E 004°54'0 0.0
2015-Feb-28 04:34N 43°26' E 004°54'0 0.0
2015-Feb-28 03:33N 43°26' E 004°54'0 0.0
2015-Feb-28 02:34N 43°26' E 004°54'0 0.0
2015-Feb-28 01:34N 43°26' E 004°54'0 0.0
2015-Feb-28 00:28N 43°26' E 004°54'2 1.8
2015-Feb-27 23:30N 43°25' E 004°56'0 0.1
2015-Feb-27 22:33N 43°25' E 004°56'0 0.0
2015-Feb-27 21:33N 43°25' E 004°56'0 0.0
2015-Feb-27 20:24N 43°25' E 004°56'0 0.0
2015-Feb-27 19:33N 43°25' E 004°56'0 0.0
2015-Feb-27 18:33N 43°25' E 004°56'0 0.0
2015-Feb-27 17:33N 43°25' E 004°56'0 0.0
2015-Feb-27 16:30N 43°25' E 004°56'0 0.0
2015-Feb-27 15:33N 43°25' E 004°56'0 0.0
2015-Feb-27 14:33N 43°25' E 004°56'0 0.0
2015-Feb-27 13:33N 43°25' E 004°56'0 0.0
2015-Feb-27 12:33N 43°25' E 004°56'0 0.0
2015-Feb-27 11:33N 43°25' E 004°56'0 0.0
2015-Feb-27 10:33N 43°25' E 004°56'3 2.7
2015-Feb-27 09:33N 43°23' E 004°57'21 9.1
2015-Feb-27 07:13N 43°17' E 004°29'1212.0
2015-Feb-27 06:12N 43°17' E 004°12'86 9.6
2015-Feb-26 21:14N 42°01' E 003°18'911.5
2015-Feb-26 20:28N 41°52' E 003°14'1411.5
2015-Feb-26 19:13N 41°42' E 003°01'1012.2
2015-Feb-26 18:24N 41°36' E 002°51'1111.9
2015-Feb-26 17:29N 41°29' E 002°39'1511.4
2015-Feb-26 16:12N 41°20' E 002°23'2311.3
2015-Feb-26 14:10N 41°10' E 001°56'  
2015-Feb-24 01:28N 41°22' E 002°27'1110.8
2015-Feb-24 00:29N 41°28' E 002°38'1111.2
2015-Feb-23 23:28N 41°35' E 002°50'1110.9
2015-Feb-23 22:28N 41°42' E 003°01'1010.8
2015-Feb-23 21:33N 41°49' E 003°11'1111.0
2015-Feb-23 20:33N 41°59' E 003°17'1110.9
2015-Feb-23 19:33N 42°10' E 003°19'1211.0
2015-Feb-23 18:29N 42°21' E 003°21'1111.2
2015-Feb-23 17:28N 42°33' E 003°18'1111.0
2015-Feb-23 16:27N 42°43' E 003°16'1010.9
2015-Feb-23 15:33N 42°53' E 003°14'9 9.3
2015-Feb-23 14:33N 43°02' E 003°17'9 8.8
2015-Feb-23 13:31N 43°06' E 003°28'1010.2
2015-Feb-23 12:32N 43°09' E 003°41'1310.4
2015-Feb-23 11:20N 43°13' E 003°58'810.5
2015-Feb-23 10:33N 43°14' E 004°09'1310.7
2015-Feb-23 09:19N 43°16' E 004°27'1211.4
2015-Feb-23 08:15N 43°17' E 004°43'1010.1
2015-Feb-23 07:19N 43°20' E 004°56'6 7.6
2015-Feb-23 06:33N 43°26' E 004°53'0 0.0
2015-Feb-23 05:31N 43°26' E 004°53'0 0.0
2015-Feb-23 04:10N 43°26' E 004°53'0 0.0
2015-Feb-23 03:22N 43°26' E 004°53'0 0.0
2015-Feb-23 02:16N 43°26' E 004°53'0 0.0
2015-Feb-23 01:25N 43°26' E 004°53'0 0.0
2015-Feb-23 00:25N 43°26' E 004°53'0 0.0
2015-Feb-22 23:16N 43°26' E 004°53'0 0.0
2015-Feb-22 22:31N 43°26' E 004°53'0 0.0
2015-Feb-22 21:31N 43°26' E 004°53'0 0.0
2015-Feb-22 20:28N 43°26' E 004°53'0 0.0
2015-Feb-22 19:22N 43°26' E 004°53'0 0.0
2015-Feb-22 18:31N 43°26' E 004°53'0 0.0
2015-Feb-22 17:28N 43°26' E 004°53'0 0.0
2015-Feb-22 16:28N 43°26' E 004°53'0 0.0
2015-Feb-22 15:28N 43°26' E 004°53'0 0.0
2015-Feb-22 14:22N 43°26' E 004°53'0 0.0
2015-Feb-22 13:28N 43°26' E 004°53'0 0.0
2015-Feb-22 12:28N 43°26' E 004°53'0 0.0
2015-Feb-22 11:28N 43°26' E 004°53'0 0.0
2015-Feb-22 10:28N 43°26' E 004°53'0 0.0
2015-Feb-22 09:31N 43°26' E 004°53'0 0.0
2015-Feb-22 08:28N 43°26' E 004°53'0 0.0
2015-Feb-22 07:22N 43°26' E 004°53'0 0.0
2015-Feb-22 06:31N 43°26' E 004°53'0 0.0
2015-Feb-22 05:28N 43°26' E 004°53'0 0.0
2015-Feb-22 04:28N 43°26' E 004°53'0 0.0
2015-Feb-22 03:22N 43°26' E 004°53'0 0.0
2015-Feb-22 02:28N 43°26' E 004°53'0 0.0
2015-Feb-22 01:31N 43°26' E 004°53'  

Dump ship's entire track history